Strona główna
METAR-TAF:

METAR-TAF

Lotnisko :

Port lotniczy Dżakarta-Soekarno-Hatta

Dżakarta, Jawa, Indonezja

Szerokość geograficzna: 06-07S, Długość geograficzna: 106-39E, wysokość: 8 m

Aktualna obserwacja pogody

Raport powstał 20 minut temu, godzina 16:30 UTC
Wiatr 8 kt od zachód
Temperatura 27°C
Wilgotność 74%
Ciśnienie 1011 hPa
Widzialność: 5000 m
Rozproszone chmury na wysokości 2000 ft
zmętnienie

METAR: WIII 121630Z 26008KT 5000 HZ SCT020 27/22 Q1011 NOSIG

czas: 23:50 (16:50 UTC)

Prognoza

Raport powstał 5 godziny i 50 minut temu, godzina 11:00 UTC
Prognoza ważna od 12 godzina 12 UTC do 13 godzina 18 UTC
Wiatr 6 kt od północny wschód
Widzialność: 7000 m
Mało chmury na wysokości 2000 ft
Stopniowe zmiany
od 12 godzina 15 UTC do 12 godzina 17 UTC
Wiatr 3 kt z kierunków zmiennych

TAF: WIII 121100Z 1212/1318 05006KT 7000 FEW020 BECMG 1215/1217 VRB03KT

Obserwacja i prognoza pogody dla ponad 4000 lotnisk (raport METAR i TAF).

Dostępne stacje oznaczono żółtymi i czerwonymi punktami na mapie.

Najedź kursorem aby zobaczyć nazwę stacji.

Kliknij aby zobaczyć obserwacje i prognozy pogody.

Aby zmienić mapę: kliknij na zielony przycisk z czarnym krzyżykiem, aby powiększyć; na zielony przycisk z myślnikiem, aby pomniejszyć; na zielone strzałki, aby przejść do map sąsiednich.


METAR-TAF: